sensor_id;sensor_type;location;lat;lon;timestamp;pressure;altitude;pressure_sealevel;temperature;humidity
75505;BME280;64085;54.974;73.410;2023-04-03T00:02:37;101648.03;;;1.68;39.94
75505;BME280;64085;54.974;73.410;2023-04-03T00:05:02;101645.91;;;1.38;40.88
75505;BME280;64085;54.974;73.410;2023-04-03T00:07:48;101648.44;;;1.50;40.44
75505;BME280;64085;54.974;73.410;2023-04-03T00:10:15;101644.88;;;1.44;40.47
75505;BME280;64085;54.974;73.410;2023-04-03T00:12:41;101635.41;;;1.52;39.99
75505;BME280;64085;54.974;73.410;2023-04-03T00:15:07;101655.38;;;1.67;39.92
75505;BME280;64085;54.974;73.410;2023-04-03T00:17:34;101655.84;;;1.54;40.14
75505;BME280;64085;54.974;73.410;2023-04-03T00:20:18;101645.91;;;1.38;40.31
75505;BME280;64085;54.974;73.410;2023-04-03T00:22:44;101646.31;;;1.57;40.40
75505;BME280;64085;54.974;73.410;2023-04-03T00:25:10;101649.16;;;1.72;39.67
75505;BME280;64085;54.974;73.410;2023-04-03T00:27:54;101595.44;;;1.30;39.92
75505;BME280;64085;54.974;73.410;2023-04-03T00:30:21;101650.53;;;1.75;39.25
75505;BME280;64085;54.974;73.410;2023-04-03T00:32:51;101649.75;;;1.79;39.30
75505;BME280;64085;54.974;73.410;2023-04-03T00:35:18;101645.03;;;1.64;39.64
75505;BME280;64085;54.974;73.410;2023-04-03T00:40:36;101659.25;;;2.92;37.56
75505;BME280;64085;54.974;73.410;2023-04-03T00:43:11;101660.97;;;3.54;35.64
75505;BME280;64085;54.974;73.410;2023-04-03T00:48:23;101657.81;;;5.59;31.99
75505;BME280;64085;54.974;73.410;2023-04-03T00:51:13;101632.22;;;6.22;30.65
75505;BME280;64085;54.974;73.410;2023-04-03T00:53:44;101641.47;;;7.12;28.71
75505;BME280;64085;54.974;73.410;2023-04-03T00:56:14;101654.03;;;7.69;28.38
75505;BME280;64085;54.974;73.410;2023-04-03T00:58:49;101606.47;;;8.10;27.21
75505;BME280;64085;54.974;73.410;2023-04-03T01:04:30;101665.63;;;10.47;24.19
75505;BME280;64085;54.974;73.410;2023-04-03T01:07:00;101659.84;;;9.95;24.90
75505;BME280;64085;54.974;73.410;2023-04-03T01:09:28;101648.28;;;10.72;24.13
75505;BME280;64085;54.974;73.410;2023-04-03T01:11:54;101660.66;;;11.70;22.43
75505;BME280;64085;54.974;73.410;2023-04-03T01:14:20;101661.88;;;13.04;21.67
75505;BME280;64085;54.974;73.410;2023-04-03T01:16:55;101641.16;;;13.22;20.43
75505;BME280;64085;54.974;73.410;2023-04-03T01:19:21;101666.66;;;13.58;19.80
75505;BME280;64085;54.974;73.410;2023-04-03T01:22:02;101669.59;;;15.04;19.20
75505;BME280;64085;54.974;73.410;2023-04-03T01:24:37;101668.63;;;14.72;18.65
75505;BME280;64085;54.974;73.410;2023-04-03T01:27:06;101667.47;;;14.49;19.09
75505;BME280;64085;54.974;73.410;2023-04-03T01:29:33;101673.81;;;14.98;18.38
75505;BME280;64085;54.974;73.410;2023-04-03T01:32:00;101678.00;;;15.72;17.78
75505;BME280;64085;54.974;73.410;2023-04-03T01:34:27;101670.56;;;16.71;16.95
75505;BME280;64085;54.974;73.410;2023-04-03T01:36:53;101668.41;;;17.35;16.10
75505;BME280;64085;54.974;73.410;2023-04-03T01:39:20;101666.81;;;16.32;17.11
75505;BME280;64085;54.974;73.410;2023-04-03T01:41:47;101670.59;;;18.26;15.96
75505;BME280;64085;54.974;73.410;2023-04-03T01:44:13;101674.31;;;19.09;14.62
75505;BME280;64085;54.974;73.410;2023-04-03T01:46:38;101679.44;;;17.47;15.58
75505;BME280;64085;54.974;73.410;2023-04-03T01:49:04;101677.78;;;18.50;15.26
75505;BME280;64085;54.974;73.410;2023-04-03T01:51:30;101679.50;;;19.41;14.30
75505;BME280;64085;54.974;73.410;2023-04-03T01:53:56;101644.56;;;19.65;13.41
75505;BME280;64085;54.974;73.410;2023-04-03T01:56:22;101683.41;;;20.89;13.52
75505;BME280;64085;54.974;73.410;2023-04-03T01:58:48;101680.34;;;20.53;13.06
75505;BME280;64085;54.974;73.410;2023-04-03T02:03:57;101686.75;;;21.12;12.32
75505;BME280;64085;54.974;73.410;2023-04-03T02:06:23;101685.31;;;21.40;12.52
75505;BME280;64085;54.974;73.410;2023-04-03T02:08:49;101674.00;;;19.82;13.04
75505;BME280;64085;54.974;73.410;2023-04-03T02:11:33;101683.72;;;21.39;12.42
75505;BME280;64085;54.974;73.410;2023-04-03T02:14:17;101682.38;;;22.37;11.93
75505;BME280;64085;54.974;73.410;2023-04-03T02:16:43;101678.31;;;22.49;11.59
75505;BME280;64085;54.974;73.410;2023-04-03T02:19:08;101685.84;;;24.66;10.54
75505;BME280;64085;54.974;73.410;2023-04-03T02:21:34;101660.44;;;24.14;10.28
75505;BME280;64085;54.974;73.410;2023-04-03T02:24:18;101683.31;;;24.34;10.19
75505;BME280;64085;54.974;73.410;2023-04-03T02:26:44;101679.72;;;24.23;10.21
75505;BME280;64085;54.974;73.410;2023-04-03T02:29:10;101684.75;;;25.66;9.86
75505;BME280;64085;54.974;73.410;2023-04-03T02:31:35;101670.22;;;25.30;9.73
75505;BME280;64085;54.974;73.410;2023-04-03T02:37:04;101672.75;;;25.55;9.66
75505;BME280;64085;54.974;73.410;2023-04-03T02:39:47;101677.47;;;27.16;8.76
75505;BME280;64085;54.974;73.410;2023-04-03T02:42:13;101675.34;;;26.54;8.99
75505;BME280;64085;54.974;73.410;2023-04-03T02:44:39;101619.19;;;26.88;8.99
75505;BME280;64085;54.974;73.410;2023-04-03T02:47:05;101676.41;;;27.07;8.17
75505;BME280;64085;54.974;73.410;2023-04-03T02:49:31;101669.78;;;25.66;9.53
75505;BME280;64085;54.974;73.410;2023-04-03T02:52:15;101668.50;;;27.38;8.87
75505;BME280;64085;54.974;73.410;2023-04-03T02:54:41;101666.69;;;27.08;9.03
75505;BME280;64085;54.974;73.410;2023-04-03T02:57:06;101673.47;;;28.87;8.00
75505;BME280;64085;54.974;73.410;2023-04-03T02:59:38;101676.16;;;30.42;7.50
75505;BME280;64085;54.974;73.410;2023-04-03T03:04:51;101678.13;;;31.80;6.79
75505;BME280;64085;54.974;73.410;2023-04-03T03:07:17;101680.56;;;32.31;6.77
75505;BME280;64085;54.974;73.410;2023-04-03T03:09:42;101666.81;;;31.76;6.29
75505;BME280;64085;54.974;73.410;2023-04-03T03:12:08;101671.34;;;32.45;6.49
75505;BME280;64085;54.974;73.410;2023-04-03T03:14:52;101662.31;;;32.46;6.43
75505;BME280;64085;54.974;73.410;2023-04-03T03:17:18;101660.50;;;31.81;6.06
75505;BME280;64085;54.974;73.410;2023-04-03T03:19:43;101662.50;;;33.16;5.83
75505;BME280;64085;54.974;73.410;2023-04-03T03:22:28;101662.38;;;32.25;5.91
75505;BME280;64085;54.974;73.410;2023-04-03T03:27:56;101653.03;;;34.61;5.16
75505;BME280;64085;54.974;73.410;2023-04-03T03:33:06;101665.06;;;36.01;4.81
75505;BME280;64085;54.974;73.410;2023-04-03T03:35:32;101667.38;;;35.38;4.97
75505;BME280;64085;54.974;73.410;2023-04-03T03:37:58;101670.63;;;36.40;4.26
75505;BME280;64085;54.974;73.410;2023-04-03T03:40:23;101675.63;;;37.27;4.52
75505;BME280;64085;54.974;73.410;2023-04-03T03:42:49;101670.63;;;39.75;3.31
75505;BME280;64085;54.974;73.410;2023-04-03T03:45:15;101679.72;;;41.51;3.03
75505;BME280;64085;54.974;73.410;2023-04-03T03:47:40;101685.38;;;42.71;2.22
75505;BME280;64085;54.974;73.410;2023-04-03T03:50:06;101681.84;;;42.78;2.68
75505;BME280;64085;54.974;73.410;2023-04-03T03:52:32;101686.91;;;42.96;2.20
75505;BME280;64085;54.974;73.410;2023-04-03T03:54:58;101684.69;;;41.86;2.63
75505;BME280;64085;54.974;73.410;2023-04-03T03:57:42;101682.78;;;41.64;1.91
75505;BME280;64085;54.974;73.410;2023-04-03T04:00:08;101689.38;;;42.68;1.94
75505;BME280;64085;54.974;73.410;2023-04-03T04:02:34;101683.38;;;43.87;1.48
75505;BME280;64085;54.974;73.410;2023-04-03T04:04:59;101687.13;;;46.11;0.85
75505;BME280;64085;54.974;73.410;2023-04-03T04:07:25;101677.72;;;46.41;0.43
75505;BME280;64085;54.974;73.410;2023-04-03T04:09:53;101685.78;;;46.48;0.68
75505;BME280;64085;54.974;73.410;2023-04-03T04:12:19;101691.84;;;47.76;0.57
75505;BME280;64085;54.974;73.410;2023-04-03T04:14:46;101679.97;;;45.70;0.95
75505;BME280;64085;54.974;73.410;2023-04-03T04:17:30;101683.78;;;45.44;0.90
75505;BME280;64085;54.974;73.410;2023-04-03T04:19:56;101679.19;;;43.37;1.58
75505;BME280;64085;54.974;73.410;2023-04-03T04:22:21;101676.91;;;40.93;2.17
75505;BME280;64085;54.974;73.410;2023-04-03T04:24:47;101669.72;;;41.82;2.37
75505;BME280;64085;54.974;73.410;2023-04-03T04:27:13;101679.56;;;44.98;1.29
75505;BME280;64085;54.974;73.410;2023-04-03T04:29:38;101641.63;;;45.32;1.52
75505;BME280;64085;54.974;73.410;2023-04-03T04:32:04;101675.38;;;46.39;0.91
75505;BME280;64085;54.974;73.410;2023-04-03T04:34:30;101647.78;;;43.30;1.48
75505;BME280;64085;54.974;73.410;2023-04-03T04:36:55;101671.38;;;44.96;1.47
75505;BME280;64085;54.974;73.410;2023-04-03T04:39:21;101669.09;;;44.55;1.20
75505;BME280;64085;54.974;73.410;2023-04-03T04:47:16;101669.25;;;45.72;0.83
75505;BME280;64085;54.974;73.410;2023-04-03T04:49:42;101631.00;;;42.23;1.89
75505;BME280;64085;54.974;73.410;2023-04-03T04:54:51;101661.53;;;40.57;2.57
75505;BME280;64085;54.974;73.410;2023-04-03T04:57:17;101656.03;;;40.42;2.51
75505;BME280;64085;54.974;73.410;2023-04-03T05:00:02;101653.50;;;41.92;2.58
75505;BME280;64085;54.974;73.410;2023-04-03T05:02:28;101655.38;;;44.10;1.44
75505;BME280;64085;54.974;73.410;2023-04-03T05:04:53;101653.53;;;44.86;1.34
75505;BME280;64085;54.974;73.410;2023-04-03T05:07:19;101667.28;;;45.96;1.29
75505;BME280;64085;54.974;73.410;2023-04-03T05:12:29;101661.09;;;40.30;2.66
75505;BME280;64085;54.974;73.410;2023-04-03T05:17:58;101656.69;;;39.79;2.94
75505;BME280;64085;54.974;73.410;2023-04-03T05:20:24;101650.03;;;43.05;1.86
75505;BME280;64085;54.974;73.410;2023-04-03T05:23:09;101641.63;;;42.63;2.13
75505;BME280;64085;54.974;73.410;2023-04-03T05:25:37;101654.78;;;45.88;0.99
75505;BME280;64085;54.974;73.410;2023-04-03T05:28:03;101633.25;;;44.81;1.21
75505;BME280;64085;54.974;73.410;2023-04-03T05:30:29;101647.16;;;45.64;0.91
75505;BME280;64085;54.974;73.410;2023-04-03T05:33:13;101647.28;;;46.00;0.64
75505;BME280;64085;54.974;73.410;2023-04-03T05:35:39;101643.81;;;45.18;1.08
75505;BME280;64085;54.974;73.410;2023-04-03T05:38:06;101633.63;;;45.74;0.88
75505;BME280;64085;54.974;73.410;2023-04-03T05:40:32;101645.97;;;45.59;1.04
75505;BME280;64085;54.974;73.410;2023-04-03T05:43:35;101648.81;;;47.09;0.48
75505;BME280;64085;54.974;73.410;2023-04-03T05:46:03;101641.94;;;47.07;1.06
75505;BME280;64085;54.974;73.410;2023-04-03T05:51:24;101642.34;;;45.45;1.09
75505;BME280;64085;54.974;73.410;2023-04-03T05:56:40;101637.63;;;48.45;0.46
75505;BME280;64085;54.974;73.410;2023-04-03T05:59:05;101626.31;;;46.45;0.77
75505;BME280;64085;54.974;73.410;2023-04-03T06:01:32;101612.78;;;43.80;1.54
75505;BME280;64085;54.974;73.410;2023-04-03T06:03:59;101624.09;;;42.01;2.05
75505;BME280;64085;54.974;73.410;2023-04-03T06:06:25;101615.59;;;43.86;1.60
75505;BME280;64085;54.974;73.410;2023-04-03T06:08:50;101615.34;;;40.12;2.87
75505;BME280;64085;54.974;73.410;2023-04-03T06:11:16;101575.47;;;41.83;2.50
75505;BME280;64085;54.974;73.410;2023-04-03T06:13:42;101620.06;;;44.14;1.65
75505;BME280;64085;54.974;73.410;2023-04-03T06:16:12;101620.59;;;43.72;1.34
75505;BME280;64085;54.974;73.410;2023-04-03T06:18:40;101620.13;;;43.23;2.09
75505;BME280;64085;54.974;73.410;2023-04-03T06:21:06;101622.44;;;44.28;1.48
75505;BME280;64085;54.974;73.410;2023-04-03T06:23:51;101608.38;;;41.61;1.98
75505;BME280;64085;54.974;73.410;2023-04-03T06:26:17;101609.75;;;41.84;1.98
75505;BME280;64085;54.974;73.410;2023-04-03T06:28:43;101615.13;;;41.09;2.56
75505;BME280;64085;54.974;73.410;2023-04-03T06:34:12;101617.06;;;40.37;2.96
75505;BME280;64085;54.974;73.410;2023-04-03T06:36:56;101614.03;;;37.30;3.82
75505;BME280;64085;54.974;73.410;2023-04-03T06:39:22;101587.47;;;31.27;6.50
75505;BME280;64085;54.974;73.410;2023-04-03T06:41:49;101521.25;;;28.05;8.00
75505;BME280;64085;54.974;73.410;2023-04-03T06:44:15;101574.53;;;25.21;10.06
75505;BME280;64085;54.974;73.410;2023-04-03T06:46:42;101596.41;;;23.97;11.27
75505;BME280;64085;54.974;73.410;2023-04-03T06:49:08;101525.38;;;22.48;12.46
75505;BME280;64085;54.974;73.410;2023-04-03T06:51:35;101591.38;;;21.83;12.97
75505;BME280;64085;54.974;73.410;2023-04-03T06:54:20;101592.50;;;21.36;13.61
75505;BME280;64085;54.974;73.410;2023-04-03T06:56:45;101582.09;;;19.68;15.56
75505;BME280;64085;54.974;73.410;2023-04-03T06:59:12;101584.56;;;20.21;14.80
75505;BME280;64085;54.974;73.410;2023-04-03T07:01:39;101540.34;;;19.59;15.51
75505;BME280;64085;54.974;73.410;2023-04-03T07:04:06;101576.69;;;19.52;15.20
75505;BME280;64085;54.974;73.410;2023-04-03T07:06:33;101577.31;;;18.71;16.50
75505;BME280;64085;54.974;73.410;2023-04-03T07:08:59;101580.72;;;18.08;17.74
75505;BME280;64085;54.974;73.410;2023-04-03T07:11:25;101571.75;;;17.14;20.88
75505;BME280;64085;54.974;73.410;2023-04-03T07:13:51;101586.97;;;17.36;18.98
75505;BME280;64085;54.974;73.410;2023-04-03T07:16:17;101591.53;;;17.06;100.00
75505;BME280;64085;54.974;73.410;2023-04-03T07:18:44;70810.53;;;-144.90;100.00
75505;BME280;64085;54.974;73.410;2023-04-03T07:21:10;70810.53;;;-144.90;100.00
75505;BME280;64085;54.974;73.410;2023-04-03T07:23:54;70810.53;;;-144.90;100.00
75505;BME280;64085;54.974;73.410;2023-04-03T07:26:20;70810.53;;;-144.90;100.00
75505;BME280;64085;54.974;73.410;2023-04-03T07:28:47;70810.53;;;-144.90;100.00
75505;BME280;64085;54.974;73.410;2023-04-03T07:31:15;70810.53;;;-144.90;100.00
75505;BME280;64085;54.974;73.410;2023-04-03T07:33:43;70810.53;;;-144.90;100.00
75505;BME280;64085;54.974;73.410;2023-04-03T07:36:11;70810.53;;;-144.90;100.00
75505;BME280;64085;54.974;73.410;2023-04-03T07:38:39;70810.53;;;-144.90;100.00
75505;BME280;64085;54.974;73.410;2023-04-03T07:43:50;70810.53;;;-144.90;100.00
75505;BME280;64085;54.974;73.410;2023-04-03T07:46:16;70810.53;;;-144.90;100.00
75505;BME280;64085;54.974;73.410;2023-04-03T07:48:43;70810.53;;;-144.90;100.00
75505;BME280;64085;54.974;73.410;2023-04-03T07:51:09;70810.53;;;-144.90;100.00
75505;BME280;64085;54.974;73.410;2023-04-03T07:53:35;70810.53;;;-144.90;100.00
75505;BME280;64085;54.974;73.410;2023-04-03T07:56:01;70810.53;;;-144.90;100.00
75505;BME280;64085;54.974;73.410;2023-04-03T07:58:28;70810.53;;;-144.90;100.00
75505;BME280;64085;54.974;73.410;2023-04-03T08:00:54;70810.53;;;-144.90;100.00
75505;BME280;64085;54.974;73.410;2023-04-03T08:03:20;70810.53;;;-144.90;100.00
75505;BME280;64085;54.974;73.410;2023-04-03T08:05:48;70810.53;;;-144.90;100.00
75505;BME280;64085;54.974;73.410;2023-04-03T08:08:16;70810.53;;;-144.90;100.00
75505;BME280;64085;54.974;73.410;2023-04-03T08:16:16;70810.53;;;-144.90;100.00
75505;BME280;64085;54.974;73.410;2023-04-03T08:21:26;70810.53;;;-144.90;100.00
75505;BME280;64085;54.974;73.410;2023-04-03T08:24:11;70810.53;;;-144.90;100.00
75505;BME280;64085;54.974;73.410;2023-04-03T08:26:36;70810.53;;;-144.90;100.00
75505;BME280;64085;54.974;73.410;2023-04-03T08:29:02;70810.53;;;-144.90;100.00
75505;BME280;64085;54.974;73.410;2023-04-03T08:31:28;70810.53;;;-144.90;100.00
75505;BME280;64085;54.974;73.410;2023-04-03T08:34:12;70810.53;;;-144.90;100.00
75505;BME280;64085;54.974;73.410;2023-04-03T08:36:38;70810.53;;;-144.90;100.00
75505;BME280;64085;54.974;73.410;2023-04-03T08:39:04;70810.53;;;-144.90;100.00
75505;BME280;64085;54.974;73.410;2023-04-03T08:41:36;70810.53;;;-144.90;100.00
75505;BME280;64085;54.974;73.410;2023-04-03T08:44:19;70810.53;;;-144.90;100.00
75505;BME280;64085;54.974;73.410;2023-04-03T08:49:59;70810.53;;;-144.90;100.00
75505;BME280;64085;54.974;73.410;2023-04-03T08:52:55;70810.53;;;-144.90;100.00
75505;BME280;64085;54.974;73.410;2023-04-03T08:55:42;70810.53;;;-144.90;100.00
75505;BME280;64085;54.974;73.410;2023-04-03T08:58:20;70810.53;;;-144.90;100.00
75505;BME280;64085;54.974;73.410;2023-04-03T09:03:38;70810.53;;;-144.90;100.00
75505;BME280;64085;54.974;73.410;2023-04-03T09:06:23;70810.53;;;-144.90;100.00
75505;BME280;64085;54.974;73.410;2023-04-03T09:09:02;70810.53;;;-144.90;100.00
75505;BME280;64085;54.974;73.410;2023-04-03T09:14:30;70810.53;;;-144.90;100.00
75505;BME280;64085;54.974;73.410;2023-04-03T09:17:04;70810.53;;;-144.90;100.00
75505;BME280;64085;54.974;73.410;2023-04-03T09:22:38;70810.53;;;-144.90;100.00
75505;BME280;64085;54.974;73.410;2023-04-03T09:25:15;70810.53;;;-144.90;100.00
75505;BME280;64085;54.974;73.410;2023-04-03T09:27:43;70810.53;;;-144.90;100.00
75505;BME280;64085;54.974;73.410;2023-04-03T09:30:27;70810.53;;;-144.90;100.00
75505;BME280;64085;54.974;73.410;2023-04-03T09:32:55;70810.53;;;-144.90;100.00
75505;BME280;64085;54.974;73.410;2023-04-03T09:35:31;70810.53;;;-144.90;100.00
75505;BME280;64085;54.974;73.410;2023-04-03T09:38:14;70810.53;;;-144.90;100.00
75505;BME280;64085;54.974;73.410;2023-04-03T09:43:52;70810.53;;;-144.90;100.00
75505;BME280;64085;54.974;73.410;2023-04-03T09:46:37;70810.53;;;-144.90;100.00
75505;BME280;64085;54.974;73.410;2023-04-03T09:49:05;70810.53;;;-144.90;100.00
75505;BME280;64085;54.974;73.410;2023-04-03T09:51:32;70810.53;;;-144.90;100.00
75505;BME280;64085;54.974;73.410;2023-04-03T09:53:58;70810.53;;;-144.90;100.00
75505;BME280;64085;54.974;73.410;2023-04-03T09:56:28;70810.53;;;-144.90;100.00
75505;BME280;64085;54.974;73.410;2023-04-03T10:01:37;70810.53;;;-144.90;100.00
75505;BME280;64085;54.974;73.410;2023-04-03T10:04:07;70810.53;;;-144.90;100.00
75505;BME280;64085;54.974;73.410;2023-04-03T10:06:51;70810.53;;;-144.90;100.00
75505;BME280;64085;54.974;73.410;2023-04-03T10:12:03;70810.53;;;-144.90;100.00
75505;BME280;64085;54.974;73.410;2023-04-03T10:14:38;70810.53;;;-144.90;100.00
75505;BME280;64085;54.974;73.410;2023-04-03T10:19:45;70810.53;;;-144.90;100.00
75505;BME280;64085;54.974;73.410;2023-04-03T10:27:56;70810.53;;;-144.90;100.00
75505;BME280;64085;54.974;73.410;2023-04-03T10:45:03;70810.53;;;-144.90;100.00
75505;BME280;64085;54.974;73.410;2023-04-03T10:47:53;70810.53;;;-144.90;100.00
75505;BME280;64085;54.974;73.410;2023-04-03T10:59:25;70810.53;;;-144.90;100.00
75505;BME280;64085;54.974;73.410;2023-04-03T11:01:59;70810.53;;;-144.90;100.00
75505;BME280;64085;54.974;73.410;2023-04-03T11:04:30;70810.53;;;-144.90;100.00
75505;BME280;64085;54.974;73.410;2023-04-03T11:07:21;70810.53;;;-144.90;100.00
75505;BME280;64085;54.974;73.410;2023-04-03T11:09:55;70810.53;;;-144.90;100.00
75505;BME280;64085;54.974;73.410;2023-04-03T11:15:15;70810.53;;;-144.90;100.00
75505;BME280;64085;54.974;73.410;2023-04-03T11:18:08;70810.53;;;-144.90;100.00
75505;BME280;64085;54.974;73.410;2023-04-03T11:20:36;70810.53;;;-144.90;100.00
75505;BME280;64085;54.974;73.410;2023-04-03T11:23:08;70810.53;;;-144.90;100.00
75505;BME280;64085;54.974;73.410;2023-04-03T11:25:57;70810.53;;;-144.90;100.00
75505;BME280;64085;54.974;73.410;2023-04-03T11:28:26;70810.53;;;-144.90;100.00
75505;BME280;64085;54.974;73.410;2023-04-03T11:31:07;70810.53;;;-144.90;100.00
75505;BME280;64085;54.974;73.410;2023-04-03T11:36:41;70810.53;;;-144.90;100.00
75505;BME280;64085;54.974;73.410;2023-04-03T11:39:31;70810.53;;;-144.90;100.00
75505;BME280;64085;54.974;73.410;2023-04-03T11:45:36;70810.53;;;-144.90;100.00
75505;BME280;64085;54.974;73.410;2023-04-03T11:51:02;70810.53;;;-144.90;100.00
75505;BME280;64085;54.974;73.410;2023-04-03T11:56:50;70810.53;;;-144.90;100.00
75505;BME280;64085;54.974;73.410;2023-04-03T11:59:37;70810.53;;;-144.90;100.00
75505;BME280;64085;54.974;73.410;2023-04-03T12:02:37;70810.53;;;-144.90;100.00
75505;BME280;64085;54.974;73.410;2023-04-03T12:05:28;70810.53;;;-144.90;100.00
75505;BME280;64085;54.974;73.410;2023-04-03T12:08:30;70810.53;;;-144.90;100.00
75505;BME280;64085;54.974;73.410;2023-04-03T12:13:35;70810.53;;;-144.90;100.00
75505;BME280;64085;54.974;73.410;2023-04-03T12:16:02;70810.53;;;-144.90;100.00
75505;BME280;64085;54.974;73.410;2023-04-03T12:21:13;70810.53;;;-144.90;100.00
75505;BME280;64085;54.974;73.410;2023-04-03T12:23:59;70810.53;;;-144.90;100.00
75505;BME280;64085;54.974;73.410;2023-04-03T12:32:54;70810.53;;;-144.90;100.00
75505;BME280;64085;54.974;73.410;2023-04-03T12:41:58;70810.53;;;-144.90;100.00
75505;BME280;64085;54.974;73.410;2023-04-03T12:44:40;70810.53;;;-144.90;100.00
75505;BME280;64085;54.974;73.410;2023-04-03T12:47:29;70810.53;;;-144.90;100.00
75505;BME280;64085;54.974;73.410;2023-04-03T12:49:59;70810.53;;;-144.90;100.00
75505;BME280;64085;54.974;73.410;2023-04-03T12:52:45;70810.53;;;-144.90;100.00
75505;BME280;64085;54.974;73.410;2023-04-03T12:58:26;70810.53;;;-144.90;100.00
75505;BME280;64085;54.974;73.410;2023-04-03T13:01:13;70810.53;;;-144.90;100.00
75505;BME280;64085;54.974;73.410;2023-04-03T13:03:43;70810.53;;;-144.90;100.00
75505;BME280;64085;54.974;73.410;2023-04-03T13:06:37;70810.53;;;-144.90;100.00
75505;BME280;64085;54.974;73.410;2023-04-03T13:09:03;70810.53;;;-144.90;100.00
75505;BME280;64085;54.974;73.410;2023-04-03T13:14:22;70810.53;;;-144.90;100.00
75505;BME280;64085;54.974;73.410;2023-04-03T13:16:59;70810.53;;;-144.90;100.00
75505;BME280;64085;54.974;73.410;2023-04-03T13:19:30;70810.53;;;-144.90;100.00
75505;BME280;64085;54.974;73.410;2023-04-03T13:24:51;70810.53;;;-144.90;100.00
75505;BME280;64085;54.974;73.410;2023-04-03T13:27:18;70810.53;;;-144.90;100.00
75505;BME280;64085;54.974;73.410;2023-04-03T13:32:51;70810.53;;;-144.90;100.00
75505;BME280;64085;54.974;73.410;2023-04-03T13:35:32;70810.53;;;-144.90;100.00
75505;BME280;64085;54.974;73.410;2023-04-03T13:38:07;70810.53;;;-144.90;100.00
75505;BME280;64085;54.974;73.410;2023-04-03T13:40:33;70810.53;;;-144.90;100.00
75505;BME280;64085;54.974;73.410;2023-04-03T13:48:44;70810.53;;;-144.90;100.00
75505;BME280;64085;54.974;73.410;2023-04-03T13:53:59;70810.53;;;-144.90;100.00
75505;BME280;64085;54.974;73.410;2023-04-03T14:07:14;70810.53;;;-144.90;100.00
75505;BME280;64085;54.974;73.410;2023-04-03T14:09:41;70810.53;;;-144.90;100.00
75505;BME280;64085;54.974;73.410;2023-04-03T14:12:32;70810.53;;;-144.90;100.00
75505;BME280;64085;54.974;73.410;2023-04-03T14:17:47;70810.53;;;-144.90;100.00
75505;BME280;64085;54.974;73.410;2023-04-03T14:20:21;70810.53;;;-144.90;100.00
75505;BME280;64085;54.974;73.410;2023-04-03T14:22:48;70810.53;;;-144.90;100.00
75505;BME280;64085;54.974;73.410;2023-04-03T14:27:59;70810.53;;;-144.90;100.00
75505;BME280;64085;54.974;73.410;2023-04-03T14:30:28;70810.53;;;-144.90;100.00
75505;BME280;64085;54.974;73.410;2023-04-03T14:32:54;70810.53;;;-144.90;100.00
75505;BME280;64085;54.974;73.410;2023-04-03T14:35:21;70810.53;;;-144.90;100.00
75505;BME280;64085;54.974;73.410;2023-04-03T14:38:11;70810.53;;;-144.90;100.00
75505;BME280;64085;54.974;73.410;2023-04-03T14:40:38;70810.53;;;-144.90;100.00
75505;BME280;64085;54.974;73.410;2023-04-03T14:43:05;70810.53;;;-144.90;100.00
75505;BME280;64085;54.974;73.410;2023-04-03T14:45:31;70810.53;;;-144.90;100.00
75505;BME280;64085;54.974;73.410;2023-04-03T14:47:57;70810.53;;;-144.90;100.00
75505;BME280;64085;54.974;73.410;2023-04-03T14:50:26;70810.53;;;-144.90;100.00
75505;BME280;64085;54.974;73.410;2023-04-03T14:52:54;70810.53;;;-144.90;100.00
75505;BME280;64085;54.974;73.410;2023-04-03T14:58:24;70810.53;;;-144.90;100.00
75505;BME280;64085;54.974;73.410;2023-04-03T15:00:50;70810.53;;;-144.90;100.00
75505;BME280;64085;54.974;73.410;2023-04-03T15:03:20;70810.53;;;-144.90;100.00
75505;BME280;64085;54.974;73.410;2023-04-03T15:05:48;70810.53;;;-144.90;100.00
75505;BME280;64085;54.974;73.410;2023-04-03T15:08:21;70810.53;;;-144.90;100.00
75505;BME280;64085;54.974;73.410;2023-04-03T15:11:06;70810.53;;;-144.90;100.00
75505;BME280;64085;54.974;73.410;2023-04-03T15:13:32;70810.53;;;-144.90;100.00
75505;BME280;64085;54.974;73.410;2023-04-03T15:15:58;70810.53;;;-144.90;100.00
75505;BME280;64085;54.974;73.410;2023-04-03T15:21:10;70810.53;;;-144.90;100.00
75505;BME280;64085;54.974;73.410;2023-04-03T15:23:36;70810.53;;;-144.90;100.00
75505;BME280;64085;54.974;73.410;2023-04-03T15:26:02;70810.53;;;-144.90;100.00
75505;BME280;64085;54.974;73.410;2023-04-03T15:28:37;70810.53;;;-144.90;100.00
75505;BME280;64085;54.974;73.410;2023-04-03T15:31:04;70810.53;;;-144.90;100.00
75505;BME280;64085;54.974;73.410;2023-04-03T15:33:30;70810.53;;;-144.90;100.00
75505;BME280;64085;54.974;73.410;2023-04-03T15:35:56;70810.53;;;-144.90;100.00
75505;BME280;64085;54.974;73.410;2023-04-03T15:38:21;70810.53;;;-144.90;100.00
75505;BME280;64085;54.974;73.410;2023-04-03T15:40:47;70810.53;;;-144.90;100.00
75505;BME280;64085;54.974;73.410;2023-04-03T15:43:14;70810.53;;;-144.90;100.00
75505;BME280;64085;54.974;73.410;2023-04-03T15:45:41;70810.53;;;-144.90;100.00
75505;BME280;64085;54.974;73.410;2023-04-03T15:48:26;70810.53;;;-144.90;100.00
75505;BME280;64085;54.974;73.410;2023-04-03T15:50:52;70810.53;;;-144.90;100.00
75505;BME280;64085;54.974;73.410;2023-04-03T15:53:18;70810.53;;;-144.90;100.00
75505;BME280;64085;54.974;73.410;2023-04-03T15:55:44;70810.53;;;-144.90;100.00
75505;BME280;64085;54.974;73.410;2023-04-03T15:58:28;70810.53;;;-144.90;100.00